Time;durP1;ratioP1;P1;durP2;ratioP2;P2;SDS_P1;SDS_P2;PMS_P1;PMS_P2;Temp;Humidity;BMP_temperature;BMP_pressure;BME280_temperature;BME280_humidity;BME280_pressure;Samples;Min_cycle;Max_cycle;Signal;HPM_P1;HPM_P2
2022/08/05 00:01:39;;;;;;;;;;;24.50;94.20;;;;;;5084339;28;20169;-71
2022/08/05 00:04:06;;;;;;;;;;;24.50;94.10;;;;;;5084157;28;19959;-71
2022/08/05 00:06:32;;;;;;;;;;;24.50;94.00;;;;;;5084104;28;19979;-70
2022/08/05 00:08:59;;;;;;;;;;;24.50;94.10;;;;;;5084264;28;19924;-71
2022/08/05 00:11:26;;;;;;;;;;;24.40;94.20;;;;;;5084264;28;19921;-70
2022/08/05 00:13:52;;;;;;;;;;;24.40;94.40;;;;;;5083717;28;19924;-70
2022/08/05 00:16:19;;;;;;;;;;;24.30;94.40;;;;;;5083931;28;20193;-70
2022/08/05 00:18:48;;;;;;;;;;;24.30;94.60;;;;;;5084145;28;19987;-70
2022/08/05 00:21:16;;;;;;;;;;;24.30;94.60;;;;;;5083322;28;20131;-71
2022/08/05 00:23:44;;;;;;;;;;;24.30;94.60;;;;;;5083538;28;19983;-70
2022/08/05 00:26:11;;;;;;;;;;;24.30;94.70;;;;;;5083832;28;19971;-70
2022/08/05 00:28:37;;;;;;;;;;;24.30;94.70;;;;;;5083942;28;19959;-70
2022/08/05 00:31:04;;;;;;;;;;;24.30;94.80;;;;;;5083828;28;19995;-70
2022/08/05 00:33:31;;;;;;;;;;;24.30;94.90;;;;;;5083563;28;19984;-70
2022/08/05 00:35:59;;;;;;;;;;;24.20;95.00;;;;;;5083562;28;20077;-71
2022/08/05 00:38:26;;;;;;;;;;;24.20;95.10;;;;;;5083922;28;20299;-70
2022/08/05 00:40:54;;;;;;;;;;;24.10;95.20;;;;;;5083650;28;19931;-70
2022/08/05 00:43:21;;;;;;;;;;;24.10;95.40;;;;;;5083751;28;20119;-70
2022/08/05 00:45:47;;;;;;;;;;;24.10;95.60;;;;;;5083684;28;20184;-70
2022/08/05 00:48:15;;;;;;;;;;;24.10;95.60;;;;;;5084176;28;19956;-69
2022/08/05 00:50:43;;;;;;;;;;;24.10;95.80;;;;;;5083430;28;19927;-69
2022/08/05 00:53:12;;;;;;;;;;;24.00;95.90;;;;;;5083562;28;19921;-70
2022/08/05 00:55:38;;;;;;;;;;;24.00;96.00;;;;;;5083433;28;19923;-70
2022/08/05 00:58:05;;;;;;;;;;;23.90;95.90;;;;;;5083570;28;19987;-71
2022/08/05 01:00:31;;;;;;;;;;;23.90;96.00;;;;;;5083816;28;19952;-70
2022/08/05 01:02:58;;;;;;;;;;;23.80;96.10;;;;;;5083056;28;19963;-71
2022/08/05 01:05:25;;;;;;;;;;;23.80;96.20;;;;;;5083400;28;20166;-70
2022/08/05 01:07:52;;;;;;;;;;;23.80;96.40;;;;;;5083483;28;19927;-70
2022/08/05 01:10:22;;;;;;;;;;;23.60;96.40;;;;;;5083350;28;19943;-70
2022/08/05 01:12:53;;;;;;;;;;;23.60;96.50;;;;;;5082754;28;19984;-71
2022/08/05 01:15:21;;;;;;;;;;;23.60;96.70;;;;;;5083176;28;19920;-70
2022/08/05 01:17:50;;;;;;;;;;;23.50;96.70;;;;;;5083142;28;19924;-69
2022/08/05 01:20:25;;;;;;;;;;;23.50;97.00;;;;;;5083637;28;20163;-70
2022/08/05 01:23:01;;;;;;;;;;;23.50;97.20;;;;;;5082144;28;19995;-70
2022/08/05 01:28:26;;;;;;;;;;;23.40;97.60;;;;;;5061685;28;19966;-71
2022/08/05 01:30:56;;;;;;;;;;;23.30;97.80;;;;;;5021586;28;19927;-71
2022/08/05 01:33:28;;;;;;;;;;;23.30;98.10;;;;;;5069378;28;20053;-71
2022/08/05 01:35:56;;;;;;;;;;;23.30;98.20;;;;;;5082991;28;19942;-71
2022/08/05 01:38:24;;;;;;;;;;;23.30;98.30;;;;;;5083062;28;19952;-71
2022/08/05 01:40:51;;;;;;;;;;;23.30;98.40;;;;;;5082946;28;20259;-71
2022/08/05 01:43:18;;;;;;;;;;;23.30;98.60;;;;;;5082749;28;20386;-71
2022/08/05 01:45:45;;;;;;;;;;;23.20;98.80;;;;;;5083045;28;20175;-71
2022/08/05 01:48:14;;;;;;;;;;;23.10;98.90;;;;;;5082952;28;19987;-70
2022/08/05 01:50:41;;;;;;;;;;;23.00;99.10;;;;;;5082876;28;19987;-71
2022/08/05 01:53:11;;;;;;;;;;;23.00;99.50;;;;;;5082655;28;20258;-70
2022/08/05 01:55:39;;;;;;;;;;;23.00;99.80;;;;;;5082607;28;19926;-69
2022/08/05 01:58:06;;;;;;;;;;;22.90;99.90;;;;;;5083035;28;19920;-71
2022/08/05 02:00:35;;;;;;;;;;;22.90;99.90;;;;;;5082961;28;19983;-70
2022/08/05 02:03:04;;;;;;;;;;;22.80;99.90;;;;;;5082462;28;20270;-71
2022/08/05 02:05:33;;;;;;;;;;;22.80;99.90;;;;;;5082606;28;20174;-71
2022/08/05 02:08:00;;;;;;;;;;;22.80;99.90;;;;;;5082893;28;19988;-71
2022/08/05 02:10:27;;;;;;;;;;;22.80;99.90;;;;;;5082664;28;19988;-71
2022/08/05 02:12:55;;;;;;;;;;;22.80;99.90;;;;;;5082364;28;19988;-71
2022/08/05 02:15:23;;;;;;;;;;;22.70;99.90;;;;;;5084179;28;19987;-71
2022/08/05 02:17:52;;;;;;;;;;;22.70;99.90;;;;;;5086170;28;20128;-71
2022/08/05 02:20:21;;;;;;;;;;;22.70;99.90;;;;;;5086067;28;19983;-70
2022/08/05 02:22:54;;;;;;;;;;;22.70;99.90;;;;;;5086160;28;19983;-71
2022/08/05 02:25:24;;;;;;;;;;;22.70;99.90;;;;;;5085364;28;20078;-71
2022/08/05 02:27:51;;;;;;;;;;;22.60;99.90;;;;;;5086323;28;20274;-69
2022/08/05 02:30:18;;;;;;;;;;;22.60;99.90;;;;;;5086143;28;19987;-71
2022/08/05 02:32:52;;;;;;;;;;;22.50;99.90;;;;;;5085664;28;19987;-70
2022/08/05 02:35:20;;;;;;;;;;;22.60;99.90;;;;;;5086182;28;19920;-71
2022/08/05 02:37:47;;;;;;;;;;;22.50;99.90;;;;;;5085870;28;19921;-70
2022/08/05 02:40:16;;;;;;;;;;;22.50;99.90;;;;;;5085934;28;19921;-70
2022/08/05 02:42:43;;;;;;;;;;;22.40;99.90;;;;;;5085637;28;19984;-71
2022/08/05 02:45:10;;;;;;;;;;;22.40;99.90;;;;;;5085884;28;19987;-71
2022/08/05 02:47:37;;;;;;;;;;;22.30;99.90;;;;;;5085989;28;19958;-71
2022/08/05 02:50:04;;;;;;;;;;;22.20;99.90;;;;;;5085865;28;20204;-70
2022/08/05 02:52:32;;;;;;;;;;;21.90;99.90;;;;;;5085700;28;19992;-70
2022/08/05 02:55:00;;;;;;;;;;;21.70;99.90;;;;;;5085440;28;19920;-71
2022/08/05 02:57:28;;;;;;;;;;;21.60;99.90;;;;;;5085466;28;20208;-70
2022/08/05 02:59:55;;;;;;;;;;;21.60;99.90;;;;;;5085463;28;19979;-70
2022/08/05 03:02:24;;;;;;;;;;;21.60;99.90;;;;;;5085626;28;19952;-70
2022/08/05 03:04:52;;;;;;;;;;;21.70;99.90;;;;;;5085272;28;19927;-71
2022/08/05 03:07:19;;;;;;;;;;;21.90;99.90;;;;;;5085763;28;20103;-70
2022/08/05 03:09:46;;;;;;;;;;;22.00;99.90;;;;;;5085220;28;19984;-70
2022/08/05 03:15:13;;;;;;;;;;;22.40;99.90;;;;;;5085300;28;19923;-70
2022/08/05 03:17:39;;;;;;;;;;;22.60;99.90;;;;;;5085271;28;20173;-70
2022/08/05 03:20:06;;;;;;;;;;;22.70;99.90;;;;;;5085303;28;20123;-70
2022/08/05 03:22:33;;;;;;;;;;;22.90;99.90;;;;;;5084078;28;19921;-70
2022/08/05 03:25:00;;;;;;;;;;;23.00;99.90;;;;;;5084224;28;20093;-71
2022/08/05 03:27:27;;;;;;;;;;;23.00;99.90;;;;;;5083863;28;19954;-71
2022/08/05 03:29:54;;;;;;;;;;;23.00;99.90;;;;;;5085138;28;19921;-71
2022/08/05 03:32:22;;;;;;;;;;;23.00;99.90;;;;;;5084866;28;20264;-69
2022/08/05 03:34:49;;;;;;;;;;;23.00;99.90;;;;;;5084633;28;19985;-69
2022/08/05 03:37:15;;;;;;;;;;;23.10;99.90;;;;;;5084813;28;20174;-71
2022/08/05 03:39:51;;;;;;;;;;;23.00;99.90;;;;;;5084725;28;20263;-70
2022/08/05 03:42:18;;;;;;;;;;;23.00;99.90;;;;;;5084647;28;19999;-71
2022/08/05 03:44:44;;;;;;;;;;;23.00;99.90;;;;;;5084272;28;19952;-69
2022/08/05 03:47:11;;;;;;;;;;;23.10;99.90;;;;;;5084461;28;19956;-70
2022/08/05 03:49:39;;;;;;;;;;;23.00;99.90;;;;;;5084664;28;19987;-70
2022/08/05 03:52:08;;;;;;;;;;;23.00;99.90;;;;;;5084358;28;19991;-71
2022/08/05 03:54:43;;;;;;;;;;;23.00;99.90;;;;;;5084299;28;20100;-70
2022/08/05 03:57:11;;;;;;;;;;;23.00;99.90;;;;;;5084516;28;19920;-71
2022/08/05 03:59:42;;;;;;;;;;;23.00;99.90;;;;;;5084340;28;20283;-70
2022/08/05 04:02:10;;;;;;;;;;;22.90;99.90;;;;;;5084365;28;19920;-71
2022/08/05 04:04:36;;;;;;;;;;;23.00;99.90;;;;;;5084126;28;19995;-71
2022/08/05 04:07:05;;;;;;;;;;;23.00;99.90;;;;;;5084179;28;20262;-71
2022/08/05 04:09:32;;;;;;;;;;;22.90;99.90;;;;;;5084197;28;19927;-70
2022/08/05 04:11:59;;;;;;;;;;;22.90;99.90;;;;;;5084203;28;19987;-70
2022/08/05 04:14:26;;;;;;;;;;;22.90;99.90;;;;;;5083713;28;19987;-70
2022/08/05 04:16:53;;;;;;;;;;;23.00;99.90;;;;;;5083998;28;20115;-70
2022/08/05 04:19:20;;;;;;;;;;;23.00;99.90;;;;;;5084102;28;19991;-71
2022/08/05 04:21:46;;;;;;;;;;;23.00;99.90;;;;;;5083158;28;19920;-71
2022/08/05 04:24:14;;;;;;;;;;;23.00;99.90;;;;;;5083715;28;20174;-71
2022/08/05 04:26:41;;;;;;;;;;;23.00;99.90;;;;;;5083590;28;20017;-71
2022/08/05 04:29:08;;;;;;;;;;;23.00;99.90;;;;;;5083894;28;19958;-69
2022/08/05 04:31:34;;;;;;;;;;;23.00;99.90;;;;;;5083762;28;19952;-71
2022/08/05 04:34:01;;;;;;;;;;;23.00;99.90;;;;;;5083594;28;19971;-70
2022/08/05 04:36:28;;;;;;;;;;;23.00;99.90;;;;;;5083636;28;19987;-70
2022/08/05 04:38:54;;;;;;;;;;;23.00;99.90;;;;;;5083424;28;19956;-70
2022/08/05 04:41:22;;;;;;;;;;;23.00;99.90;;;;;;5083764;28;19991;-71
2022/08/05 04:43:49;;;;;;;;;;;23.00;99.90;;;;;;5083201;28;19987;-70
2022/08/05 04:46:15;;;;;;;;;;;23.00;99.90;;;;;;5083369;28;19963;-70
2022/08/05 04:48:42;;;;;;;;;;;23.10;99.90;;;;;;5083709;28;19921;-70
2022/08/05 04:51:11;;;;;;;;;;;23.10;99.90;;;;;;5083492;28;20219;-71
2022/08/05 04:53:38;;;;;;;;;;;23.10;99.90;;;;;;5083254;28;19958;-71
2022/08/05 04:56:05;;;;;;;;;;;23.10;99.90;;;;;;5083538;28;19921;-71
2022/08/05 04:58:33;;;;;;;;;;;23.20;99.90;;;;;;5083358;28;19996;-71
2022/08/05 05:00:59;;;;;;;;;;;23.30;99.90;;;;;;5083633;28;19963;-71
2022/08/05 05:03:26;;;;;;;;;;;23.30;99.90;;;;;;5083184;28;19994;-71
2022/08/05 05:05:52;;;;;;;;;;;23.30;99.90;;;;;;5083324;28;19952;-71
2022/08/05 05:08:19;;;;;;;;;;;23.30;99.90;;;;;;5083349;28;19948;-71
2022/08/05 05:10:47;;;;;;;;;;;23.40;99.90;;;;;;5083306;28;19948;-71
2022/08/05 05:13:14;;;;;;;;;;;23.30;99.90;;;;;;5082936;28;20011;-70
2022/08/05 05:15:43;;;;;;;;;;;23.40;99.90;;;;;;5083315;28;20127;-70
2022/08/05 05:18:12;;;;;;;;;;;23.40;99.90;;;;;;5083446;28;19987;-71
2022/08/05 05:20:39;;;;;;;;;;;23.40;99.90;;;;;;5082691;28;19984;-70
2022/08/05 05:23:05;;;;;;;;;;;23.50;99.90;;;;;;5085840;28;19994;-69
2022/08/05 05:25:32;;;;;;;;;;;23.50;99.90;;;;;;5086839;28;19955;-70
2022/08/05 05:27:59;;;;;;;;;;;23.50;99.90;;;;;;5084025;28;19980;-70
2022/08/05 05:30:25;;;;;;;;;;;23.50;99.90;;;;;;5083351;28;19983;-70
2022/08/05 05:32:53;;;;;;;;;;;23.50;99.90;;;;;;5082889;28;19967;-71
2022/08/05 05:35:21;;;;;;;;;;;23.60;99.90;;;;;;5083073;28;19991;-70
2022/08/05 05:37:48;;;;;;;;;;;23.70;99.90;;;;;;5083166;28;19920;-70
2022/08/05 05:40:15;;;;;;;;;;;23.80;99.90;;;;;;5083048;28;19927;-70
2022/08/05 05:42:42;;;;;;;;;;;23.90;99.90;;;;;;5082617;28;20221;-70
2022/08/05 05:45:09;;;;;;;;;;;24.00;99.90;;;;;;5083247;28;20159;-73
2022/08/05 05:47:36;;;;;;;;;;;24.20;99.90;;;;;;5083027;28;19983;-76
2022/08/05 05:50:05;;;;;;;;;;;24.30;99.90;;;;;;5084149;28;19920;-73
2022/08/05 05:52:31;;;;;;;;;;;24.30;99.90;;;;;;5086685;28;19921;-71
2022/08/05 05:54:58;;;;;;;;;;;24.30;99.90;;;;;;5087071;28;19924;-70
2022/08/05 05:57:25;;;;;;;;;;;24.30;99.90;;;;;;5086962;28;19983;-71
2022/08/05 05:59:52;;;;;;;;;;;24.30;99.90;;;;;;5087039;28;19931;-71
2022/08/05 06:02:19;;;;;;;;;;;24.30;99.90;;;;;;5086794;28;19987;-70
2022/08/05 06:04:45;;;;;;;;;;;24.30;99.90;;;;;;5086333;28;20156;-71
2022/08/05 06:07:13;;;;;;;;;;;24.30;99.90;;;;;;5086469;28;20115;-70
2022/08/05 06:09:40;;;;;;;;;;;24.20;99.90;;;;;;5086478;28;19954;-70
2022/08/05 06:12:07;;;;;;;;;;;24.20;99.90;;;;;;5086691;28;20123;-70
2022/08/05 06:14:34;;;;;;;;;;;24.20;99.90;;;;;;5086318;28;19988;-68
2022/08/05 06:17:00;;;;;;;;;;;24.20;99.90;;;;;;5086398;28;19927;-70
2022/08/05 06:19:27;;;;;;;;;;;24.10;99.90;;;;;;5086510;28;19927;-70
2022/08/05 06:21:53;;;;;;;;;;;24.10;99.90;;;;;;5085498;28;19920;-70
2022/08/05 06:24:21;;;;;;;;;;;24.10;99.90;;;;;;5086188;28;19926;-71
2022/08/05 06:26:48;;;;;;;;;;;24.10;99.90;;;;;;5086277;28;19920;-70
2022/08/05 06:29:15;;;;;;;;;;;24.10;99.90;;;;;;5086170;28;20247;-70
2022/08/05 06:31:41;;;;;;;;;;;24.00;99.90;;;;;;5086351;28;19988;-70
2022/08/05 06:34:08;;;;;;;;;;;24.10;99.90;;;;;;5086064;28;19999;-71
2022/08/05 06:36:35;;;;;;;;;;;24.10;99.90;;;;;;5085921;28;19948;-71
2022/08/05 06:39:01;;;;;;;;;;;24.10;99.90;;;;;;5085800;28;19920;-70
2022/08/05 06:41:29;;;;;;;;;;;24.20;99.90;;;;;;5085805;28;19979;-70
2022/08/05 06:43:56;;;;;;;;;;;24.30;99.90;;;;;;5085415;28;19963;-70
2022/08/05 06:46:23;;;;;;;;;;;24.40;99.90;;;;;;5086048;28;19987;-71
2022/08/05 06:48:50;;;;;;;;;;;24.50;99.90;;;;;;5085723;28;19927;-70
2022/08/05 06:51:16;;;;;;;;;;;24.60;99.90;;;;;;5085621;28;19963;-70
2022/08/05 06:53:43;;;;;;;;;;;24.70;99.90;;;;;;5085748;28;19956;-70
2022/08/05 06:56:11;;;;;;;;;;;24.70;99.90;;;;;;5084856;28;20285;-70
2022/08/05 06:58:39;;;;;;;;;;;24.80;99.90;;;;;;5085967;28;20006;-70
2022/08/05 07:01:06;;;;;;;;;;;24.90;99.90;;;;;;5085507;28;19983;-70
2022/08/05 07:03:33;;;;;;;;;;;25.00;99.90;;;;;;5085000;28;20176;-70
2022/08/05 07:06:00;;;;;;;;;;;25.10;99.90;;;;;;5085259;28;19987;-71
2022/08/05 07:08:27;;;;;;;;;;;25.10;99.90;;;;;;5085718;28;19927;-71
2022/08/05 07:10:54;;;;;;;;;;;25.10;99.90;;;;;;5085414;28;19920;-70
2022/08/05 07:18:51;;;;;;;;;;;25.20;99.90;;;;;;5085590;28;19927;-71
2022/08/05 07:21:18;;;;;;;;;;;25.20;99.90;;;;;;5084418;28;19920;-70
2022/08/05 07:23:45;;;;;;;;;;;25.30;99.90;;;;;;5084166;28;19987;-71
2022/08/05 07:28:39;;;;;;;;;;;25.20;99.90;;;;;;5063588;28;19920;-70
2022/08/05 07:31:07;;;;;;;;;;;25.20;99.90;;;;;;5065112;28;19971;-70
2022/08/05 07:33:34;;;;;;;;;;;25.20;99.90;;;;;;5084686;28;20172;-70
2022/08/05 07:36:01;;;;;;;;;;;25.20;99.90;;;;;;5084765;28;20112;-70
2022/08/05 07:38:27;;;;;;;;;;;25.30;99.90;;;;;;5084912;28;20159;-70
2022/08/05 07:40:54;;;;;;;;;;;25.40;99.90;;;;;;5085105;28;19956;-70
2022/08/05 07:43:21;;;;;;;;;;;25.40;99.90;;;;;;5084435;28;20131;-72
2022/08/05 07:45:47;;;;;;;;;;;25.40;99.90;;;;;;5084736;28;20263;-70
2022/08/05 07:48:15;;;;;;;;;;;25.40;99.90;;;;;;5084735;28;19962;-70
2022/08/05 07:50:42;;;;;;;;;;;25.40;99.90;;;;;;5085033;28;19962;-71
2022/08/05 07:53:09;;;;;;;;;;;25.50;99.90;;;;;;5084444;28;19920;-72
2022/08/05 07:55:35;;;;;;;;;;;25.50;99.90;;;;;;5084758;28;19924;-71
2022/08/05 07:58:02;;;;;;;;;;;25.50;99.90;;;;;;5084877;28;19920;-70
2022/08/05 08:00:29;;;;;;;;;;;25.50;99.90;;;;;;5084712;28;19951;-71
2022/08/05 08:02:55;;;;;;;;;;;25.50;99.90;;;;;;5084205;28;19920;-70
2022/08/05 08:05:25;;;;;;;;;;;25.60;99.90;;;;;;5084518;28;19920;-70
2022/08/05 08:07:52;;;;;;;;;;;25.70;99.90;;;;;;5084789;28;19920;-70
2022/08/05 08:10:18;;;;;;;;;;;25.70;99.90;;;;;;5089861;28;19960;-71
2022/08/05 08:12:45;;;;;;;;;;;25.80;99.90;;;;;;5088471;28;19921;-70
2022/08/05 08:15:12;;;;;;;;;;;25.80;99.90;;;;;;5084283;28;19927;-72
2022/08/05 08:17:38;;;;;;;;;;;25.90;99.90;;;;;;5084038;28;19962;-71
2022/08/05 08:20:05;;;;;;;;;;;26.00;99.90;;;;;;5084550;28;19962;-71
2022/08/05 08:22:33;;;;;;;;;;;26.10;99.90;;;;;;5083157;28;19959;-71
2022/08/05 08:25:00;;;;;;;;;;;26.20;99.90;;;;;;5083506;28;19995;-71
2022/08/05 08:27:27;;;;;;;;;;;26.30;99.90;;;;;;5083994;28;19983;-70
2022/08/05 08:29:53;;;;;;;;;;;26.40;99.90;;;;;;5084090;28;20089;-71
2022/08/05 08:32:20;;;;;;;;;;;26.50;99.90;;;;;;5083137;28;19995;-70
2022/08/05 08:34:47;;;;;;;;;;;26.60;99.90;;;;;;5083778;28;19958;-71
2022/08/05 08:37:13;;;;;;;;;;;26.70;99.90;;;;;;5083739;28;19927;-71
2022/08/05 08:39:41;;;;;;;;;;;26.80;99.90;;;;;;5083614;28;20115;-71
2022/08/05 08:42:08;;;;;;;;;;;26.90;99.90;;;;;;5083838;28;19948;-71
2022/08/05 08:44:36;;;;;;;;;;;27.00;99.90;;;;;;5083428;28;19999;-71
2022/08/05 08:47:03;;;;;;;;;;;27.00;99.80;;;;;;5083603;28;19970;-72
2022/08/05 08:49:30;;;;;;;;;;;27.10;99.10;;;;;;5084223;28;20262;-71
2022/08/05 08:51:58;;;;;;;;;;;27.20;99.90;;;;;;5083548;28;20204;-71
2022/08/05 08:54:25;;;;;;;;;;;27.20;99.90;;;;;;5083555;28;20175;-72
2022/08/05 08:56:53;;;;;;;;;;;27.30;99.50;;;;;;5083911;28;19927;-71
2022/08/05 08:59:20;;;;;;;;;;;27.40;98.20;;;;;;5083560;28;19948;-71
2022/08/05 09:01:47;;;;;;;;;;;27.50;97.10;;;;;;5083468;28;19931;-72
2022/08/05 09:04:14;;;;;;;;;;;27.60;96.80;;;;;;5083026;28;20187;-71
2022/08/05 09:06:40;;;;;;;;;;;27.70;95.70;;;;;;5083253;28;19928;-71
2022/08/05 09:09:07;;;;;;;;;;;27.80;95.40;;;;;;5083346;28;19934;-72
2022/08/05 09:11:35;;;;;;;;;;;27.80;95.10;;;;;;5083304;28;20227;-71
2022/08/05 09:14:03;;;;;;;;;;;27.90;94.90;;;;;;5083039;28;19956;-71
2022/08/05 09:16:30;;;;;;;;;;;28.00;94.10;;;;;;5083231;28;19956;-71
2022/08/05 09:18:56;;;;;;;;;;;28.00;94.30;;;;;;5083310;28;19999;-71
2022/08/05 09:21:23;;;;;;;;;;;28.10;94.40;;;;;;5083637;28;19952;-71
2022/08/05 09:24:02;;;;;;;;;;;28.20;94.80;;;;;;5083141;28;19982;-70
2022/08/05 09:26:28;;;;;;;;;;;28.30;94.60;;;;;;5086774;28;19978;-70
2022/08/05 09:28:59;;;;;;;;;;;28.20;94.60;;;;;;5088310;28;20100;-70
2022/08/05 09:31:27;;;;;;;;;;;28.30;94.80;;;;;;5086679;28;20014;-70
2022/08/05 09:33:54;;;;;;;;;;;28.30;94.70;;;;;;5087397;28;19920;-70
2022/08/05 09:36:21;;;;;;;;;;;28.20;95.00;;;;;;5087429;28;19920;-70
2022/08/05 09:38:57;;;;;;;;;;;28.20;95.20;;;;;;5087496;28;19920;-72
2022/08/05 09:41:24;;;;;;;;;;;28.30;95.10;;;;;;5087204;28;19988;-71
2022/08/05 09:43:51;;;;;;;;;;;28.30;94.70;;;;;;5086824;28;19983;-70
2022/08/05 09:46:25;;;;;;;;;;;28.30;94.00;;;;;;5086952;28;19920;-70
2022/08/05 09:48:53;;;;;;;;;;;28.40;93.90;;;;;;5087226;28;19927;-70
2022/08/05 09:51:31;;;;;;;;;;;28.50;93.10;;;;;;5086982;28;20166;-71
2022/08/05 09:53:57;;;;;;;;;;;28.60;93.30;;;;;;5086727;28;19924;-70
2022/08/05 09:56:25;;;;;;;;;;;28.70;92.50;;;;;;5086840;28;20175;-70
2022/08/05 09:58:59;;;;;;;;;;;28.80;92.90;;;;;;5086858;28;20296;-71
2022/08/05 10:01:26;;;;;;;;;;;28.80;92.60;;;;;;5087007;28;19983;-71
2022/08/05 10:03:58;;;;;;;;;;;28.90;92.20;;;;;;5086540;28;19991;-72
2022/08/05 10:06:26;;;;;;;;;;;28.90;92.20;;;;;;5086697;28;20230;-71
2022/08/05 10:08:52;;;;;;;;;;;29.00;92.70;;;;;;5086675;28;20147;-72
2022/08/05 10:11:19;;;;;;;;;;;29.10;92.10;;;;;;5086548;28;20302;-73
2022/08/05 10:13:45;;;;;;;;;;;29.20;92.40;;;;;;5086702;28;19921;-71
2022/08/05 10:16:29;;;;;;;;;;;29.40;91.80;;;;;;5086622;28;19971;-71
2022/08/05 10:18:57;;;;;;;;;;;29.50;91.60;;;;;;5086725;28;19987;-71
2022/08/05 10:21:24;;;;;;;;;;;29.60;91.70;;;;;;5085539;28;19959;-71
2022/08/05 10:23:51;;;;;;;;;;;29.70;91.30;;;;;;5086076;28;20003;-71
2022/08/05 10:26:19;;;;;;;;;;;29.70;91.10;;;;;;5086337;28;19948;-71
2022/08/05 10:28:46;;;;;;;;;;;29.80;91.30;;;;;;5086407;28;19980;-72
2022/08/05 10:31:13;;;;;;;;;;;29.90;90.90;;;;;;5086364;28;20168;-71
2022/08/05 10:33:40;;;;;;;;;;;30.00;90.60;;;;;;5085950;28;19921;-71
2022/08/05 10:36:08;;;;;;;;;;;30.00;90.90;;;;;;5085528;28;19920;-71
2022/08/05 10:38:36;;;;;;;;;;;29.90;90.80;;;;;;5086390;28;20167;-71
2022/08/05 10:41:07;;;;;;;;;;;29.80;91.20;;;;;;5086240;28;19974;-72
2022/08/05 10:43:36;;;;;;;;;;;29.70;90.80;;;;;;5085702;28;19971;-72
2022/08/05 10:46:04;;;;;;;;;;;29.80;90.90;;;;;;5085973;28;19958;-71
2022/08/05 10:48:32;;;;;;;;;;;29.90;90.60;;;;;;5085807;28;19920;-71
2022/08/05 10:51:02;;;;;;;;;;;30.00;90.90;;;;;;5086069;28;19999;-72
2022/08/05 10:53:44;;;;;;;;;;;30.20;90.70;;;;;;5085630;28;19921;-72
2022/08/05 10:56:12;;;;;;;;;;;30.30;90.00;;;;;;5085829;28;19934;-71
2022/08/05 10:58:49;;;;;;;;;;;30.50;90.70;;;;;;5085699;28;19927;-69
2022/08/05 11:01:16;;;;;;;;;;;30.70;90.20;;;;;;5085607;28;19933;-71
2022/08/05 11:04:02;;;;;;;;;;;30.80;90.00;;;;;;5085515;28;19951;-71
2022/08/05 11:06:29;;;;;;;;;;;31.00;88.70;;;;;;5085634;28;19947;-71
2022/08/05 11:09:14;;;;;;;;;;;31.00;89.70;;;;;;5085534;28;19995;-71
2022/08/05 11:11:42;;;;;;;;;;;31.00;89.40;;;;;;5085632;28;19974;-71
2022/08/05 11:14:11;;;;;;;;;;;31.10;90.00;;;;;;5085319;28;19920;-71
2022/08/05 11:16:37;;;;;;;;;;;31.20;90.20;;;;;;5085284;28;20188;-71
2022/08/05 11:19:22;;;;;;;;;;;31.20;89.50;;;;;;5085470;28;19988;-70
2022/08/05 11:21:48;;;;;;;;;;;31.40;88.00;;;;;;5077507;28;20122;-70
2022/08/05 11:24:16;;;;;;;;;;;31.60;87.00;;;;;;5084801;28;20172;-70
2022/08/05 11:26:43;;;;;;;;;;;31.70;87.30;;;;;;5084882;28;20203;-70
2022/08/05 11:29:30;;;;;;;;;;;31.90;86.80;;;;;;5085162;28;19984;-70
2022/08/05 11:32:16;;;;;;;;;;;32.10;86.60;;;;;;5084413;28;20223;-70
2022/08/05 11:34:43;;;;;;;;;;;32.20;86.20;;;;;;5084558;28;19936;-71
2022/08/05 11:37:10;;;;;;;;;;;32.00;84.50;;;;;;5085151;28;20122;-71
2022/08/05 11:39:49;;;;;;;;;;;31.80;85.20;;;;;;5085052;28;19984;-70
2022/08/05 11:42:17;;;;;;;;;;;31.60;85.70;;;;;;5084914;28;20225;-70
2022/08/05 11:44:43;;;;;;;;;;;31.70;86.10;;;;;;5084322;28;19943;-71
2022/08/05 11:47:10;;;;;;;;;;;31.80;85.20;;;;;;5084408;28;19920;-71
2022/08/05 11:49:37;;;;;;;;;;;32.00;86.00;;;;;;5084771;28;19942;-72
2022/08/05 11:52:05;;;;;;;;;;;32.20;84.60;;;;;;5085086;28;20172;-72
2022/08/05 11:54:33;;;;;;;;;;;32.30;84.50;;;;;;5084377;28;19991;-71
2022/08/05 11:57:02;;;;;;;;;;;32.40;84.60;;;;;;5084545;28;19948;-70
2022/08/05 11:59:29;;;;;;;;;;;32.50;81.90;;;;;;5084445;28;19952;-70
2022/08/05 12:01:56;;;;;;;;;;;32.40;81.00;;;;;;5084596;28;20259;-72
2022/08/05 12:04:24;;;;;;;;;;;32.50;83.60;;;;;;5084013;28;19943;-70
2022/08/05 12:06:51;;;;;;;;;;;32.70;81.20;;;;;;5084368;28;19992;-70
2022/08/05 12:09:20;;;;;;;;;;;32.90;81.00;;;;;;5084345;28;19927;-71
2022/08/05 12:11:47;;;;;;;;;;;32.90;79.90;;;;;;5084329;28;19987;-71
2022/08/05 12:14:15;;;;;;;;;;;33.00;80.40;;;;;;5083895;28;20230;-71
2022/08/05 12:16:42;;;;;;;;;;;33.00;80.10;;;;;;5084238;28;19927;-72
2022/08/05 12:19:09;;;;;;;;;;;33.00;80.90;;;;;;5084075;28;19987;-71
2022/08/05 12:21:41;;;;;;;;;;;33.10;80.20;;;;;;5084015;28;19958;-71
2022/08/05 12:24:09;;;;;;;;;;;33.20;80.30;;;;;;5083748;28;19987;-71
2022/08/05 12:26:36;;;;;;;;;;;33.40;79.50;;;;;;5083556;28;19927;-70
2022/08/05 12:29:04;;;;;;;;;;;33.60;80.20;;;;;;5083847;28;20266;-71
2022/08/05 12:31:32;;;;;;;;;;;33.60;78.70;;;;;;5083378;28;20092;-70
2022/08/05 12:34:00;;;;;;;;;;;33.60;78.80;;;;;;5083680;28;19966;-70
2022/08/05 12:36:26;;;;;;;;;;;33.60;78.10;;;;;;5083607;28;19958;-71
2022/08/05 12:38:54;;;;;;;;;;;33.60;78.30;;;;;;5083743;28;19988;-70
2022/08/05 12:41:20;;;;;;;;;;;33.70;78.10;;;;;;5083622;28;19921;-70
2022/08/05 12:43:51;;;;;;;;;;;33.80;79.60;;;;;;5083360;28;19987;-70
2022/08/05 12:46:21;;;;;;;;;;;33.80;78.80;;;;;;5083577;28;19994;-71
2022/08/05 12:48:55;;;;;;;;;;;33.90;78.30;;;;;;5083554;28;19959;-70
2022/08/05 12:51:22;;;;;;;;;;;34.00;77.70;;;;;;5083582;28;20212;-71
2022/08/05 12:53:49;;;;;;;;;;;34.00;76.90;;;;;;5083101;28;20093;-72
2022/08/05 12:56:16;;;;;;;;;;;34.00;76.70;;;;;;5083531;28;19978;-71
2022/08/05 12:58:43;;;;;;;;;;;34.00;76.90;;;;;;5083408;28;19927;-71
2022/08/05 13:01:10;;;;;;;;;;;34.10;78.00;;;;;;5083595;28;19920;-70
2022/08/05 13:03:37;;;;;;;;;;;34.20;76.70;;;;;;5083215;28;19999;-71
2022/08/05 13:06:08;;;;;;;;;;;34.30;75.20;;;;;;5083156;28;19971;-71
2022/08/05 13:08:37;;;;;;;;;;;34.60;75.40;;;;;;5083350;28;19952;-70
2022/08/05 13:11:04;;;;;;;;;;;34.80;75.10;;;;;;5083701;28;20115;-70
2022/08/05 13:13:31;;;;;;;;;;;34.90;72.50;;;;;;5083064;28;20246;-71
2022/08/05 13:15:57;;;;;;;;;;;34.80;71.70;;;;;;5083145;28;19987;-71
2022/08/05 13:18:24;;;;;;;;;;;34.80;72.90;;;;;;5083416;28;20230;-70
2022/08/05 13:20:51;;;;;;;;;;;34.80;72.90;;;;;;5083389;28;19991;-70
2022/08/05 13:23:19;;;;;;;;;;;34.90;72.90;;;;;;5083237;28;19968;-70
2022/08/05 13:25:45;;;;;;;;;;;34.90;72.10;;;;;;5083147;28;19956;-71
2022/08/05 13:28:12;;;;;;;;;;;35.00;72.20;;;;;;5083518;28;19927;-70
2022/08/05 13:30:39;;;;;;;;;;;35.00;71.80;;;;;;5083310;28;19920;-71
2022/08/05 13:33:06;;;;;;;;;;;35.00;72.60;;;;;;5082874;28;19987;-70
2022/08/05 13:35:32;;;;;;;;;;;35.20;72.40;;;;;;5083208;28;20176;-71
2022/08/05 13:37:59;;;;;;;;;;;35.20;70.80;;;;;;5082935;28;20088;-71
2022/08/05 13:40:27;;;;;;;;;;;35.10;71.10;;;;;;5083248;28;19987;-72
2022/08/05 13:42:54;;;;;;;;;;;35.10;70.60;;;;;;5082709;28;19959;-73
2022/08/05 13:45:20;;;;;;;;;;;35.20;70.90;;;;;;5082984;28;20007;-71
2022/08/05 13:47:47;;;;;;;;;;;35.30;71.30;;;;;;5082953;28;20009;-71
2022/08/05 13:50:14;;;;;;;;;;;35.40;71.00;;;;;;5083325;28;20361;-71
2022/08/05 13:52:40;;;;;;;;;;;35.50;70.80;;;;;;5082931;28;20002;-71
2022/08/05 13:55:07;;;;;;;;;;;35.40;71.00;;;;;;5083036;28;20175;-71
2022/08/05 13:57:36;;;;;;;;;;;35.40;70.60;;;;;;5082963;28;19959;-71
2022/08/05 14:00:03;;;;;;;;;;;35.50;71.00;;;;;;5083039;28;20232;-71
2022/08/05 14:02:29;;;;;;;;;;;35.50;69.40;;;;;;5082689;28;19987;-72
2022/08/05 14:05:12;;;;;;;;;;;35.60;70.00;;;;;;5082837;28;19948;-71
2022/08/05 14:07:39;;;;;;;;;;;35.50;69.10;;;;;;5082936;28;19917;-72
2022/08/05 14:10:06;;;;;;;;;;;35.40;70.20;;;;;;5082982;28;19959;-71
2022/08/05 14:12:33;;;;;;;;;;;35.50;71.00;;;;;;5085730;28;20211;-73
2022/08/05 14:15:01;;;;;;;;;;;35.70;70.10;;;;;;5086238;28;19988;-72
2022/08/05 14:17:28;;;;;;;;;;;36.00;69.40;;;;;;5086518;28;19987;-71
2022/08/05 14:19:54;;;;;;;;;;;36.10;69.10;;;;;;5086520;28;19987;-70
2022/08/05 14:22:21;;;;;;;;;;;36.10;69.20;;;;;;5086216;28;19991;-70
2022/08/05 14:24:48;;;;;;;;;;;36.10;68.80;;;;;;5086041;28;19942;-71
2022/08/05 14:27:14;;;;;;;;;;;36.00;69.30;;;;;;5086441;28;19924;-71
2022/08/05 14:29:41;;;;;;;;;;;35.90;68.80;;;;;;5086164;28;19952;-71
2022/08/05 14:32:09;;;;;;;;;;;35.80;68.00;;;;;;5085922;28;19947;-71
2022/08/05 14:34:36;;;;;;;;;;;35.50;68.70;;;;;;5086251;28;19987;-71